createdAt,value
2017-07-29T00:01:49.591Z,99.90
2017-07-29T00:04:17.675Z,99.90
2017-07-29T00:06:45.755Z,99.90
2017-07-29T00:09:13.835Z,99.90
2017-07-29T00:11:41.917Z,99.90
2017-07-29T00:14:10.014Z,99.90
2017-07-29T00:16:38.111Z,99.90
2017-07-29T00:19:06.184Z,99.90
2017-07-29T00:21:34.254Z,99.90
2017-07-29T00:24:02.339Z,99.90
2017-07-29T00:26:30.414Z,99.90
2017-07-29T00:28:58.492Z,99.90
2017-07-29T00:31:26.566Z,99.90
2017-07-29T00:33:54.657Z,99.90
2017-07-29T00:36:22.727Z,99.90
2017-07-29T00:38:50.810Z,99.90
2017-07-29T00:41:18.896Z,99.90
2017-07-29T00:43:47.069Z,99.90
2017-07-29T00:46:15.144Z,99.90
2017-07-29T00:48:43.244Z,99.90
2017-07-29T00:51:11.322Z,99.90
2017-07-29T00:53:39.403Z,99.90
2017-07-29T00:56:07.494Z,99.90
2017-07-29T00:58:35.564Z,99.90
2017-07-29T01:01:03.653Z,99.90
2017-07-29T01:03:31.724Z,99.90
2017-07-29T01:05:59.807Z,99.90
2017-07-29T01:08:27.881Z,99.90
2017-07-29T01:10:55.952Z,99.90
2017-07-29T01:13:24.091Z,99.90
2017-07-29T01:15:52.181Z,99.90
2017-07-29T01:18:20.247Z,99.90
2017-07-29T01:20:48.328Z,99.90
2017-07-29T01:23:16.397Z,99.90
2017-07-29T01:25:44.480Z,99.90
2017-07-29T01:28:12.572Z,99.90
2017-07-29T01:30:40.645Z,99.90
2017-07-29T01:33:08.722Z,99.90
2017-07-29T01:35:36.803Z,99.90
2017-07-29T01:38:04.882Z,99.90
2017-07-29T01:40:32.956Z,99.90
2017-07-29T01:43:01.048Z,99.90
2017-07-29T01:45:29.148Z,99.90
2017-07-29T01:47:57.238Z,99.90
2017-07-29T01:50:25.326Z,99.90
2017-07-29T01:52:53.413Z,99.90
2017-07-29T01:55:21.490Z,99.90
2017-07-29T01:57:49.576Z,99.90
2017-07-29T02:00:17.656Z,99.90
2017-07-29T02:02:45.742Z,99.90
2017-07-29T02:05:13.828Z,99.90
2017-07-29T02:07:41.907Z,99.90
2017-07-29T02:10:09.990Z,99.90
2017-07-29T02:12:38.059Z,99.90
2017-07-29T02:15:06.151Z,99.90
2017-07-29T02:17:34.238Z,99.90
2017-07-29T02:20:02.326Z,99.90
2017-07-29T02:22:30.399Z,99.90
2017-07-29T02:24:58.480Z,99.90
2017-07-29T02:27:26.568Z,99.90
2017-07-29T02:29:54.645Z,99.90
2017-07-29T02:32:22.740Z,99.90
2017-07-29T02:34:50.805Z,99.90
2017-07-29T02:37:18.901Z,99.90
2017-07-29T02:39:46.992Z,99.90
2017-07-29T02:42:15.075Z,99.90
2017-07-29T02:44:43.154Z,99.90
2017-07-29T02:47:11.236Z,99.90
2017-07-29T02:49:39.319Z,99.90
2017-07-29T02:52:07.395Z,99.90
2017-07-29T02:54:35.467Z,99.90
2017-07-29T02:57:03.546Z,99.90
2017-07-29T02:59:31.622Z,99.90
2017-07-29T03:01:59.697Z,99.90
2017-07-29T03:04:27.848Z,99.90
2017-07-29T03:06:55.918Z,99.90
2017-07-29T03:09:23.998Z,99.90
2017-07-29T03:11:52.078Z,99.90
2017-07-29T03:14:20.211Z,99.90
2017-07-29T03:16:48.285Z,99.90
2017-07-29T03:19:16.361Z,99.90
2017-07-29T03:21:44.427Z,99.90
2017-07-29T03:24:12.507Z,99.90
2017-07-29T03:26:40.594Z,99.90
2017-07-29T03:29:08.675Z,99.90
2017-07-29T03:31:36.749Z,99.90
2017-07-29T03:34:04.840Z,99.90
2017-07-29T03:36:32.930Z,99.90
2017-07-29T03:39:01.015Z,99.90
2017-07-29T03:41:29.096Z,99.90
2017-07-29T03:43:57.179Z,99.90
2017-07-29T03:46:25.254Z,99.90
2017-07-29T03:48:53.364Z,99.90
2017-07-29T03:51:21.450Z,99.90
2017-07-29T03:53:49.520Z,99.90
2017-07-29T03:56:17.599Z,99.90
2017-07-29T03:58:45.679Z,99.90
2017-07-29T04:01:13.767Z,99.90
2017-07-29T04:03:41.851Z,99.90
2017-07-29T04:06:09.938Z,99.90
2017-07-29T04:08:38.003Z,99.90
2017-07-29T04:11:06.097Z,99.90
2017-07-29T04:13:34.231Z,99.90
2017-07-29T04:16:02.305Z,99.90
2017-07-29T04:18:30.405Z,99.90
2017-07-29T04:20:58.487Z,99.90
2017-07-29T04:23:26.583Z,99.90
2017-07-29T04:25:54.659Z,99.90
2017-07-29T04:28:22.742Z,99.90
2017-07-29T04:30:50.815Z,99.90
2017-07-29T04:33:18.918Z,99.90
2017-07-29T04:35:46.991Z,99.90
2017-07-29T04:38:15.080Z,99.90
2017-07-29T04:40:43.164Z,99.90
2017-07-29T04:43:11.243Z,99.90
2017-07-29T04:45:39.336Z,99.90
2017-07-29T04:48:07.399Z,99.90
2017-07-29T04:50:35.483Z,99.90
2017-07-29T04:53:03.559Z,99.90
2017-07-29T04:55:31.699Z,99.90
2017-07-29T04:57:59.775Z,99.90
2017-07-29T05:00:27.864Z,99.90
2017-07-29T05:02:55.935Z,99.90
2017-07-29T05:05:24.051Z,99.90
2017-07-29T05:07:52.128Z,99.90
2017-07-29T05:10:20.307Z,99.90
2017-07-29T05:12:48.458Z,99.90
2017-07-29T05:15:16.551Z,99.90
2017-07-29T05:17:44.640Z,99.90
2017-07-29T05:20:12.724Z,99.90
2017-07-29T05:22:40.806Z,99.90
2017-07-29T05:25:08.870Z,99.90
2017-07-29T05:27:36.951Z,99.90
2017-07-29T05:30:05.023Z,99.90
2017-07-29T05:32:33.102Z,99.90
2017-07-29T05:35:01.180Z,99.90
2017-07-29T05:37:29.258Z,99.90
2017-07-29T05:39:57.331Z,99.90
2017-07-29T05:42:25.428Z,99.90
2017-07-29T05:44:53.535Z,99.90
2017-07-29T05:47:21.622Z,99.90
2017-07-29T05:49:49.711Z,99.90
2017-07-29T05:52:17.782Z,99.90
2017-07-29T05:54:45.863Z,99.90
2017-07-29T05:57:14.611Z,99.90
2017-07-29T05:59:42.699Z,99.90
2017-07-29T06:02:10.776Z,99.90
2017-07-29T06:04:38.859Z,99.90
2017-07-29T06:07:06.940Z,99.90
2017-07-29T06:09:35.020Z,99.90
2017-07-29T06:12:03.096Z,99.90
2017-07-29T06:14:31.203Z,99.90
2017-07-29T06:16:59.292Z,99.90
2017-07-29T06:19:27.363Z,99.90
2017-07-29T06:21:55.452Z,99.90
2017-07-29T06:24:23.519Z,99.90
2017-07-29T06:26:51.593Z,99.90
2017-07-29T06:29:19.671Z,99.90
2017-07-29T06:31:47.759Z,99.90
2017-07-29T06:34:15.836Z,99.70
2017-07-29T06:36:43.932Z,99.20
2017-07-29T06:39:12.011Z,98.80
2017-07-29T06:41:40.101Z,97.70
2017-07-29T06:44:08.179Z,97.10
2017-07-29T06:46:36.264Z,98.00
2017-07-29T06:49:04.349Z,96.40
2017-07-29T06:51:32.431Z,96.00
2017-07-29T06:54:00.522Z,94.90
2017-07-29T06:56:28.603Z,94.70
2017-07-29T06:58:56.691Z,94.50
2017-07-29T07:01:24.768Z,93.40
2017-07-29T07:03:52.850Z,94.20
2017-07-29T07:06:20.930Z,93.90
2017-07-29T07:08:49.029Z,92.70
2017-07-29T07:11:17.107Z,92.00
2017-07-29T07:13:45.183Z,92.00
2017-07-29T07:16:13.272Z,90.80
2017-07-29T07:18:41.357Z,90.40
2017-07-29T07:21:09.435Z,88.10
2017-07-29T07:23:37.503Z,89.80
2017-07-29T07:26:05.592Z,90.10
2017-07-29T07:28:33.707Z,86.50
2017-07-29T07:31:01.800Z,86.10
2017-07-29T07:33:29.961Z,87.30
2017-07-29T07:35:58.031Z,85.20
2017-07-29T07:38:26.108Z,82.80
2017-07-29T07:40:54.183Z,81.80
2017-07-29T07:43:22.255Z,82.80
2017-07-29T07:45:50.351Z,79.60
2017-07-29T07:48:18.425Z,80.60
2017-07-29T07:50:46.505Z,80.50
2017-07-29T07:53:14.595Z,80.20
2017-07-29T07:55:42.670Z,80.80
2017-07-29T07:58:10.753Z,80.70
2017-07-29T08:00:38.841Z,78.20
2017-07-29T08:03:06.928Z,78.00
2017-07-29T08:05:35.005Z,76.90
2017-07-29T08:08:03.078Z,74.30
2017-07-29T08:10:31.169Z,74.90
2017-07-29T08:13:00.119Z,75.30
2017-07-29T08:15:28.217Z,76.70
2017-07-29T08:17:56.298Z,75.70
2017-07-29T08:20:24.378Z,75.40
2017-07-29T08:22:52.452Z,75.00
2017-07-29T08:25:20.540Z,74.40
2017-07-29T08:27:48.624Z,76.50
2017-07-29T08:30:16.715Z,77.50
2017-07-29T08:32:45.474Z,78.50
2017-07-29T08:35:13.560Z,77.80
2017-07-29T08:37:41.639Z,75.30
2017-07-29T08:40:09.728Z,72.60
2017-07-29T08:42:37.807Z,73.80
2017-07-29T08:45:05.887Z,75.30
2017-07-29T08:47:33.964Z,74.30
2017-07-29T08:50:02.051Z,73.90
2017-07-29T08:52:30.119Z,75.30
2017-07-29T08:54:58.194Z,74.80
2017-07-29T08:57:26.521Z,75.90
2017-07-29T08:59:54.620Z,76.50
2017-07-29T09:02:23.607Z,77.20
2017-07-29T09:04:51.890Z,76.60
2017-07-29T09:07:19.974Z,77.30
2017-07-29T09:09:48.099Z,75.90
2017-07-29T09:12:16.195Z,77.80
2017-07-29T09:14:44.266Z,77.30
2017-07-29T09:17:12.351Z,73.60
2017-07-29T09:19:40.420Z,74.80
2017-07-29T09:22:08.513Z,75.20
2017-07-29T09:24:36.587Z,72.50
2017-07-29T09:27:04.658Z,72.60
2017-07-29T09:29:32.748Z,71.30
2017-07-29T09:32:00.828Z,70.00
2017-07-29T09:34:28.909Z,71.00
2017-07-29T09:36:56.980Z,70.40
2017-07-29T09:39:25.060Z,67.30
2017-07-29T09:41:53.143Z,68.20
2017-07-29T09:44:21.227Z,67.50
2017-07-29T09:46:49.303Z,68.20
2017-07-29T09:49:17.420Z,67.40
2017-07-29T09:51:45.513Z,67.40
2017-07-29T09:54:13.671Z,66.70
2017-07-29T09:56:41.750Z,63.00
2017-07-29T09:59:09.830Z,63.90
2017-07-29T10:01:37.919Z,62.10
2017-07-29T10:04:05.992Z,59.00
2017-07-29T10:06:34.090Z,56.30
2017-07-29T10:09:02.179Z,60.10
2017-07-29T10:11:30.268Z,59.00
2017-07-29T10:13:58.349Z,60.40
2017-07-29T10:16:26.439Z,58.80
2017-07-29T10:18:54.520Z,55.20
2017-07-29T10:21:22.606Z,53.10
2017-07-29T10:23:50.687Z,55.50
2017-07-29T10:26:18.774Z,57.70
2017-07-29T10:28:46.856Z,59.10
2017-07-29T10:31:14.923Z,57.20
2017-07-29T10:33:43.016Z,58.80
2017-07-29T10:36:11.096Z,57.00
2017-07-29T10:38:39.185Z,58.60
2017-07-29T10:41:07.415Z,59.40
2017-07-29T10:43:35.776Z,57.50
2017-07-29T10:46:03.857Z,55.70
2017-07-29T10:48:31.947Z,51.50
2017-07-29T10:51:00.028Z,48.60
2017-07-29T10:53:28.119Z,52.70
2017-07-29T10:55:56.209Z,49.90
2017-07-29T10:58:24.275Z,50.00
2017-07-29T11:00:52.364Z,53.60
2017-07-29T11:03:20.441Z,52.60
2017-07-29T11:05:48.526Z,52.90
2017-07-29T11:08:16.605Z,55.20
2017-07-29T11:10:44.682Z,56.30
2017-07-29T11:13:12.763Z,55.50
2017-07-29T11:15:40.859Z,53.00
2017-07-29T11:18:08.935Z,51.50
2017-07-29T11:20:37.027Z,55.80
2017-07-29T11:23:05.115Z,55.10
2017-07-29T11:25:33.198Z,53.40
2017-07-29T11:28:01.267Z,53.40
2017-07-29T11:30:29.348Z,49.60
2017-07-29T11:32:57.439Z,49.20
2017-07-29T11:35:25.528Z,52.80
2017-07-29T11:37:53.611Z,53.30
2017-07-29T11:40:21.695Z,51.80
2017-07-29T11:42:49.780Z,53.00
2017-07-29T11:45:17.856Z,54.40
2017-07-29T11:47:45.944Z,54.90
2017-07-29T11:50:14.012Z,52.50
2017-07-29T11:52:42.082Z,51.70
2017-07-29T11:55:10.164Z,50.80
2017-07-29T11:57:38.235Z,50.00
2017-07-29T12:00:06.325Z,51.80
2017-07-29T12:02:34.386Z,50.30
2017-07-29T12:05:02.467Z,50.80
2017-07-29T12:07:30.544Z,49.70
2017-07-29T12:09:58.639Z,48.30
2017-07-29T12:12:26.927Z,46.90
2017-07-29T12:14:55.044Z,48.80
2017-07-29T12:17:23.131Z,49.00
2017-07-29T12:19:51.211Z,48.50
2017-07-29T12:22:19.285Z,48.10
2017-07-29T12:24:47.357Z,48.70
2017-07-29T12:27:15.441Z,50.90
2017-07-29T12:29:43.509Z,50.10
2017-07-29T12:32:11.587Z,51.80
2017-07-29T12:34:39.663Z,49.20
2017-07-29T12:37:07.747Z,50.70
2017-07-29T12:39:35.819Z,51.30
2017-07-29T12:42:03.914Z,49.10
2017-07-29T12:44:32.092Z,48.90
2017-07-29T12:47:00.159Z,47.30
2017-07-29T12:49:28.242Z,49.10
2017-07-29T12:51:56.322Z,50.70
2017-07-29T12:54:24.421Z,51.00
2017-07-29T12:56:52.608Z,49.50
2017-07-29T12:59:20.704Z,47.80
2017-07-29T13:01:48.951Z,46.70
2017-07-29T13:04:17.120Z,49.80
2017-07-29T13:06:45.202Z,49.00
2017-07-29T13:09:13.283Z,49.60
2017-07-29T13:11:42.139Z,51.20
2017-07-29T13:14:10.223Z,51.20
2017-07-29T13:16:38.304Z,50.30
2017-07-29T13:19:06.398Z,48.20
2017-07-29T13:21:34.487Z,48.40
2017-07-29T13:24:02.563Z,51.10
2017-07-29T13:26:30.646Z,49.60
2017-07-29T13:28:58.723Z,47.10
2017-07-29T13:31:26.823Z,47.10
2017-07-29T13:33:54.904Z,47.10
2017-07-29T13:36:22.975Z,49.70
2017-07-29T13:38:51.059Z,49.50
2017-07-29T13:41:19.135Z,49.90
2017-07-29T13:43:47.206Z,51.00
2017-07-29T13:46:15.295Z,49.70
2017-07-29T13:48:43.378Z,51.40
2017-07-29T13:51:11.452Z,52.10
2017-07-29T13:53:39.538Z,51.50
2017-07-29T13:56:08.619Z,52.70
2017-07-29T13:58:36.715Z,51.90
2017-07-29T14:01:04.791Z,51.60
2017-07-29T14:03:32.877Z,51.90
2017-07-29T14:06:00.956Z,52.00
2017-07-29T14:08:29.031Z,52.40
2017-07-29T14:10:57.132Z,51.90
2017-07-29T14:13:25.202Z,54.10
2017-07-29T14:15:53.288Z,54.00
2017-07-29T14:18:21.359Z,53.40
2017-07-29T14:20:49.460Z,54.50
2017-07-29T14:23:17.540Z,55.00
2017-07-29T14:25:45.628Z,53.70
2017-07-29T14:28:13.694Z,54.40
2017-07-29T14:30:41.766Z,53.70
2017-07-29T14:33:09.864Z,54.30
2017-07-29T14:35:37.955Z,53.70
2017-07-29T14:38:06.040Z,54.70
2017-07-29T14:40:34.114Z,55.30
2017-07-29T14:43:02.212Z,56.30
2017-07-29T14:45:30.278Z,56.10
2017-07-29T14:47:58.357Z,56.00
2017-07-29T14:50:26.440Z,55.00
2017-07-29T14:52:54.529Z,54.20
2017-07-29T14:55:22.600Z,53.10
2017-07-29T14:57:50.680Z,54.50
2017-07-29T15:00:18.767Z,53.80
2017-07-29T15:02:46.856Z,54.60
2017-07-29T15:05:14.946Z,55.30
2017-07-29T15:07:43.023Z,55.90
2017-07-29T15:10:11.123Z,55.60
2017-07-29T15:12:39.203Z,54.50
2017-07-29T15:15:07.297Z,55.40
2017-07-29T15:17:35.379Z,54.30
2017-07-29T15:20:03.455Z,55.30
2017-07-29T15:22:31.535Z,55.40
2017-07-29T15:24:59.629Z,55.50
2017-07-29T15:27:27.700Z,56.50
2017-07-29T15:29:55.777Z,56.00
2017-07-29T15:32:23.854Z,57.10
2017-07-29T15:34:51.931Z,55.70
2017-07-29T15:37:20.010Z,57.50
2017-07-29T15:39:48.090Z,56.40
2017-07-29T15:42:16.171Z,57.40
2017-07-29T15:44:44.258Z,57.10
2017-07-29T15:47:12.334Z,57.60
2017-07-29T15:49:40.463Z,55.60
2017-07-29T15:52:08.554Z,55.20
2017-07-29T15:54:36.643Z,55.80
2017-07-29T15:57:04.730Z,56.40
2017-07-29T15:59:32.802Z,58.30
2017-07-29T16:02:00.891Z,58.10
2017-07-29T16:04:28.983Z,57.20
2017-07-29T16:06:57.059Z,58.10
2017-07-29T16:09:25.153Z,58.00
2017-07-29T16:11:53.229Z,58.20
2017-07-29T16:14:21.324Z,58.60
2017-07-29T16:16:49.385Z,59.10
2017-07-29T16:19:17.465Z,59.30
2017-07-29T16:21:45.552Z,57.40
2017-07-29T16:24:13.736Z,57.80
2017-07-29T16:26:41.880Z,58.00
2017-07-29T16:29:09.972Z,57.30
2017-07-29T16:31:38.077Z,57.50
2017-07-29T16:34:06.159Z,58.30
2017-07-29T16:36:34.244Z,58.10
2017-07-29T16:39:02.341Z,57.90
2017-07-29T16:41:30.421Z,58.20
2017-07-29T16:43:58.520Z,59.10
2017-07-29T16:46:26.597Z,59.40
2017-07-29T16:48:54.678Z,59.50
2017-07-29T16:51:22.758Z,58.80
2017-07-29T16:53:50.939Z,59.00
2017-07-29T16:56:19.042Z,59.10
2017-07-29T16:58:47.111Z,60.10
2017-07-29T17:01:15.203Z,59.60
2017-07-29T17:03:43.274Z,60.20
2017-07-29T17:06:11.355Z,59.90
2017-07-29T17:08:39.432Z,59.60
2017-07-29T17:11:07.508Z,59.30
2017-07-29T17:13:35.591Z,60.00
2017-07-29T17:16:03.664Z,59.50
2017-07-29T17:18:31.750Z,59.70
2017-07-29T17:20:59.831Z,59.50
2017-07-29T17:23:27.926Z,59.50
2017-07-29T17:25:55.993Z,59.70
2017-07-29T17:28:24.084Z,60.10
2017-07-29T17:30:52.155Z,60.30
2017-07-29T17:33:20.231Z,60.30
2017-07-29T17:35:48.306Z,60.60
2017-07-29T17:38:16.456Z,61.50
2017-07-29T17:40:44.532Z,60.30
2017-07-29T17:43:12.608Z,59.70
2017-07-29T17:45:40.683Z,60.60
2017-07-29T17:48:08.759Z,60.30
2017-07-29T17:50:36.839Z,60.10
2017-07-29T17:53:04.914Z,60.30
2017-07-29T17:55:33.005Z,59.80
2017-07-29T17:58:01.273Z,59.60
2017-07-29T18:00:29.328Z,59.30
2017-07-29T18:02:57.423Z,59.00
2017-07-29T18:05:25.482Z,58.50
2017-07-29T18:07:53.554Z,58.90
2017-07-29T18:10:21.679Z,56.90
2017-07-29T18:12:49.759Z,56.80
2017-07-29T18:15:17.843Z,56.40
2017-07-29T18:17:45.931Z,58.60
2017-07-29T18:20:14.007Z,58.70
2017-07-29T18:22:42.100Z,59.80
2017-07-29T18:25:10.182Z,60.60
2017-07-29T18:27:38.290Z,61.90
2017-07-29T18:30:06.375Z,63.10
2017-07-29T18:32:34.466Z,63.50
2017-07-29T18:35:02.627Z,65.20
2017-07-29T18:37:30.711Z,66.70
2017-07-29T18:39:58.777Z,66.00
2017-07-29T18:42:26.842Z,65.50
2017-07-29T18:44:54.934Z,66.40
2017-07-29T18:47:23.008Z,66.40
2017-07-29T18:49:51.088Z,66.30
2017-07-29T18:52:19.155Z,67.90
2017-07-29T18:54:47.240Z,67.10
2017-07-29T18:57:15.307Z,68.60
2017-07-29T18:59:43.641Z,69.20
2017-07-29T19:02:11.763Z,69.00
2017-07-29T19:04:39.893Z,69.60
2017-07-29T19:07:07.979Z,73.10
2017-07-29T19:09:36.080Z,71.90
2017-07-29T19:12:04.166Z,71.40
2017-07-29T19:14:32.267Z,71.90
2017-07-29T19:17:00.342Z,72.10
2017-07-29T19:19:28.438Z,74.80
2017-07-29T19:21:56.535Z,75.10
2017-07-29T19:24:24.611Z,74.40
2017-07-29T19:26:52.699Z,74.40
2017-07-29T19:29:20.786Z,74.10
2017-07-29T19:31:48.866Z,74.30
2017-07-29T19:34:16.951Z,75.30
2017-07-29T19:36:45.027Z,76.00
2017-07-29T19:39:13.107Z,76.40
2017-07-29T19:41:41.189Z,77.50
2017-07-29T19:44:09.651Z,78.10
2017-07-29T19:46:38.053Z,77.90
2017-07-29T19:49:06.522Z,77.30
2017-07-29T19:51:34.627Z,77.90
2017-07-29T19:54:02.717Z,79.20
2017-07-29T19:56:30.809Z,78.40
2017-07-29T19:58:58.908Z,78.50
2017-07-29T20:01:26.975Z,78.60
2017-07-29T20:03:55.059Z,78.80
2017-07-29T20:06:23.135Z,80.00
2017-07-29T20:08:51.215Z,80.40
2017-07-29T20:11:19.291Z,80.30
2017-07-29T20:13:47.383Z,81.90
2017-07-29T20:16:15.455Z,81.80
2017-07-29T20:18:43.582Z,82.30
2017-07-29T20:21:11.743Z,82.50
2017-07-29T20:23:39.833Z,83.60
2017-07-29T20:26:08.105Z,83.60
2017-07-29T20:28:36.189Z,85.00
2017-07-29T20:31:04.446Z,84.80
2017-07-29T20:33:32.522Z,85.30
2017-07-29T20:36:00.792Z,84.00
2017-07-29T20:38:28.868Z,83.90
2017-07-29T20:40:56.955Z,83.60
2017-07-29T20:43:25.039Z,84.50
2017-07-29T20:45:53.263Z,84.60
2017-07-29T20:48:21.413Z,84.40
2017-07-29T20:50:49.511Z,84.90
2017-07-29T20:53:17.595Z,84.80
2017-07-29T20:55:46.573Z,84.80
2017-07-29T20:58:14.667Z,84.80
2017-07-29T21:00:42.730Z,85.30
2017-07-29T21:03:10.811Z,85.40
2017-07-29T21:05:38.893Z,86.00
2017-07-29T21:08:06.976Z,85.80
2017-07-29T21:10:35.062Z,86.00
2017-07-29T21:13:03.147Z,86.00
2017-07-29T21:15:31.274Z,85.70
2017-07-29T21:17:59.584Z,86.30
2017-07-29T21:20:27.725Z,87.50
2017-07-29T21:22:56.122Z,88.30
2017-07-29T21:25:24.250Z,88.50
2017-07-29T21:27:52.324Z,88.70
2017-07-29T21:30:20.407Z,88.60
2017-07-29T21:32:48.482Z,89.00
2017-07-29T21:35:16.574Z,89.80
2017-07-29T21:37:44.654Z,90.10
2017-07-29T21:40:12.745Z,90.00
2017-07-29T21:42:40.927Z,89.90
2017-07-29T21:45:09.196Z,89.90
2017-07-29T21:47:37.351Z,90.00
2017-07-29T21:50:05.448Z,90.00
2017-07-29T21:52:34.293Z,90.40
2017-07-29T21:55:02.384Z,90.20
2017-07-29T21:57:30.574Z,90.20
2017-07-29T21:59:58.647Z,90.00
2017-07-29T22:02:26.740Z,90.20
2017-07-29T22:04:55.191Z,90.90
2017-07-29T22:07:23.283Z,91.20
2017-07-29T22:09:51.372Z,90.80
2017-07-29T22:12:19.474Z,90.80
2017-07-29T22:14:47.554Z,90.40
2017-07-29T22:17:15.647Z,90.30
2017-07-29T22:19:43.730Z,90.70
2017-07-29T22:22:11.822Z,91.00
2017-07-29T22:24:39.913Z,91.50
2017-07-29T22:27:07.993Z,92.60
2017-07-29T22:29:36.074Z,92.70
2017-07-29T22:32:04.158Z,92.80
2017-07-29T22:34:32.258Z,93.60
2017-07-29T22:37:00.347Z,93.90
2017-07-29T22:39:28.447Z,94.00
2017-07-29T22:41:56.521Z,95.00
2017-07-29T22:44:24.607Z,95.70
2017-07-29T22:46:52.679Z,96.30
2017-07-29T22:49:20.765Z,96.90
2017-07-29T22:51:48.849Z,97.00
2017-07-29T22:54:17.007Z,97.00
2017-07-29T22:56:45.224Z,97.40
2017-07-29T22:59:13.302Z,98.80
2017-07-29T23:01:41.385Z,98.80
2017-07-29T23:04:09.476Z,98.90
2017-07-29T23:06:37.564Z,99.90
2017-07-29T23:09:05.633Z,99.90
2017-07-29T23:11:33.711Z,99.80
2017-07-29T23:14:01.780Z,99.60
2017-07-29T23:16:29.860Z,99.60
2017-07-29T23:18:57.941Z,99.90
2017-07-29T23:21:26.024Z,99.90
2017-07-29T23:23:54.097Z,99.90
2017-07-29T23:26:22.177Z,99.90
2017-07-29T23:28:50.263Z,99.90
2017-07-29T23:31:18.344Z,99.90
2017-07-29T23:33:46.434Z,99.90
2017-07-29T23:36:14.510Z,99.90
2017-07-29T23:38:42.596Z,99.90
2017-07-29T23:41:10.676Z,99.90
2017-07-29T23:43:38.756Z,99.90
2017-07-29T23:46:06.829Z,99.90
2017-07-29T23:48:34.914Z,99.80
2017-07-29T23:51:02.989Z,99.70
2017-07-29T23:53:31.078Z,99.60
2017-07-29T23:55:59.367Z,99.70
2017-07-29T23:58:27.461Z,99.90
